Time;durP1;ratioP1;P1;durP2;ratioP2;P2;SDS_P1;SDS_P2;PMS_P1;PMS_P2;Temp;Humidity;BMP_temperature;BMP_pressure;BME280_temperature;BME280_humidity;BME280_pressure;Samples;Min_cycle;Max_cycle;Signal;HPM_P1;HPM_P2
2023/09/16 00:01:21;;;;;;;0.20;0.20;;;;;;;15.10;66.85;100463.22;5003544;28;20050;-68
2023/09/16 00:03:47;;;;;;;0.20;0.20;;;;;;;15.08;67.07;100462.69;5003738;28;20038;-72
2023/09/16 00:06:15;;;;;;;0.20;0.20;;;;;;;15.05;67.07;100457.75;4998324;28;20150;-68
2023/09/16 00:08:43;;;;;;;0.20;0.20;;;;;;;15.02;67.37;100467.41;5003412;28;20061;-68
2023/09/16 00:11:10;;;;;;;0.20;0.20;;;;;;;14.98;68.15;100469.91;5002958;28;20085;-68
2023/09/16 00:13:37;;;;;;;0.20;0.20;;;;;;;15.00;67.85;100464.94;5003976;28;20375;-67
2023/09/16 00:16:05;;;;;;;0.20;0.20;;;;;;;15.01;67.72;100465.78;4986017;28;20092;-68
2023/09/16 00:18:31;;;;;;;0.20;0.20;;;;;;;14.96;67.79;100466.63;5004703;28;20061;-73
2023/09/16 00:20:57;;;;;;;0.20;0.20;;;;;;;15.02;67.53;100467.41;5003809;28;20080;-68
2023/09/16 00:23:25;;;;;;;0.20;0.20;;;;;;;15.03;68.11;100475.38;5003480;28;20842;-66
2023/09/16 00:25:52;;;;;;;0.20;0.20;;;;;;;15.03;67.97;100477.31;5003012;28;20478;-67
2023/09/16 00:28:18;;;;;;;0.17;0.17;;;;;;;15.03;68.19;100475.38;5003374;28;20077;-68
2023/09/16 00:30:45;;;;;;;0.20;0.20;;;;;;;15.02;68.23;100482.00;5004607;28;20492;-71
2023/09/16 00:33:12;;;;;;;0.20;0.20;;;;;;;14.98;68.30;100477.34;5005142;28;20045;-72
2023/09/16 00:35:38;;;;;;;;;;;;;;;14.96;68.36;100474.06;5005040;28;20175;-72
2023/09/16 00:38:04;;;;;;;0.20;0.20;;;;;;;14.94;68.17;100474.38;5004309;28;20007;-73
2023/09/16 00:40:32;;;;;;;0.10;0.10;;;;;;;14.92;68.52;100481.25;5004860;28;20046;-72
2023/09/16 00:42:58;;;;;;;0.20;0.20;;;;;;;14.89;69.10;100477.13;5007236;28;20061;-71
2023/09/16 00:45:25;;;;;;;0.10;0.10;;;;;;;14.88;69.36;100481.00;5004482;28;20564;-68
2023/09/16 00:47:52;;;;;;;0.20;0.20;;;;;;;14.85;69.93;100474.16;5018623;28;20069;-68
2023/09/16 00:50:18;;;;;;;0.20;0.20;;;;;;;14.84;70.05;100477.19;5017539;28;20053;-69
2023/09/16 00:52:49;;;;;;;0.20;0.20;;;;;;;14.86;70.07;100480.47;5002677;28;20152;-68
2023/09/16 00:55:16;;;;;;;0.20;0.20;;;;;;;14.82;70.23;100471.16;5003797;28;20089;-68
2023/09/16 00:57:47;;;;;;;0.20;0.20;;;;;;;14.87;70.49;100485.69;5001664;28;20560;-68
2023/09/16 01:00:16;;;;;;;0.20;0.20;;;;;;;14.90;70.98;100484.28;5001879;28;20046;-68
2023/09/16 01:02:43;;;;;;;0.20;0.20;;;;;;;14.88;70.93;100484.59;4987745;28;20100;-68
2023/09/16 01:05:15;;;;;;;0.20;0.20;;;;;;;14.87;71.00;100477.44;4999042;28;20441;-67
2023/09/16 01:07:41;;;;;;;0.10;0.10;;;;;;;14.88;71.12;100483.75;5004231;28;20422;-67
2023/09/16 01:10:13;;;;;;;0.20;0.20;;;;;;;14.83;71.64;100483.81;5003402;28;20070;-68
2023/09/16 01:12:39;;;;;;;0.20;0.20;;;;;;;14.80;72.38;100487.13;4988074;28;20042;-68
2023/09/16 01:15:09;;;;;;;;;;;;;;;14.76;72.51;100495.13;5001055;28;20049;-66
2023/09/16 01:17:42;;;;;;;0.20;0.20;;;;;;;14.72;73.01;100503.13;5001795;28;19925;-68
2023/09/16 01:20:15;;;;;;;0.20;0.20;;;;;;;14.73;73.64;100495.72;5004056;28;20349;-67
2023/09/16 01:22:45;;;;;;;0.20;0.20;;;;;;;14.73;73.83;100498.47;4986942;28;20611;-68
2023/09/16 01:25:14;;;;;;;0.20;0.20;;;;;;;14.71;74.18;100498.75;5002256;28;20056;-72
2023/09/16 01:27:40;;;;;;;0.10;0.10;;;;;;;14.71;74.42;100500.66;4970651;28;20420;-68
2023/09/16 01:30:08;;;;;;;0.20;0.20;;;;;;;14.70;74.66;100507.28;5001450;28;20152;-71
2023/09/16 01:32:41;;;;;;;0.10;0.10;;;;;;;14.70;74.64;100510.03;5002116;28;20050;-71
2023/09/16 01:35:12;;;;;;;0.13;0.13;;;;;;;14.69;74.84;100505.63;5004389;28;20532;-70
2023/09/16 01:37:40;;;;;;;0.20;0.20;;;;;;;14.76;74.85;100513.59;5002810;28;20042;-73
2023/09/16 01:40:10;;;;;;;0.20;0.20;;;;;;;14.74;74.91;100522.13;5002605;28;20042;-72
2023/09/16 01:42:39;;;;;;;0.20;0.20;;;;;;;14.73;75.18;100524.03;5001537;28;20042;-72
2023/09/16 01:45:07;;;;;;;0.20;0.20;;;;;;;14.75;75.20;100521.03;4985470;28;20137;-68
2023/09/16 01:47:34;;;;;;;;;;;;;;;14.76;75.07;100519.91;5001346;28;20402;-68
2023/09/16 01:50:00;;;;;;;0.10;0.10;;;;;;;14.76;74.90;100521.84;4985907;28;19964;-70
2023/09/16 01:52:27;;;;;;;0.17;0.17;;;;;;;14.71;75.00;100520.75;4999706;28;20575;-71
2023/09/16 01:54:53;;;;;;;0.20;0.20;;;;;;;14.76;75.18;100524.59;5001196;28;20567;-71
2023/09/16 01:57:19;;;;;;;0.20;0.20;;;;;;;14.76;75.12;100527.38;5018172;28;20038;-70
2023/09/16 01:59:47;;;;;;;0.20;0.20;;;;;;;14.72;75.31;100522.41;5002503;28;20057;-72
2023/09/16 02:02:13;;;;;;;0.20;0.20;;;;;;;14.74;75.59;100541.41;5003112;28;20108;-72
2023/09/16 02:04:43;;;;;;;0.20;0.20;;;;;;;14.78;75.54;100525.94;5000218;28;20049;-67
2023/09/16 02:07:10;;;;;;;0.20;0.20;;;;;;;14.76;75.21;100528.16;4984876;28;20579;-68
2023/09/16 02:09:37;;;;;;;0.20;0.20;;;;;;;14.79;75.24;100533.09;5000050;28;20111;-67
2023/09/16 02:12:04;;;;;;;0.13;0.13;;;;;;;14.79;75.38;100533.09;4999839;28;20077;-72
2023/09/16 02:14:30;;;;;;;0.20;0.20;;;;;;;14.80;75.63;100531.19;5000439;28;20057;-72
2023/09/16 02:16:58;;;;;;;0.10;0.10;;;;;;;14.70;75.77;100519.09;5001672;28;20096;-72
2023/09/16 02:19:25;;;;;;;0.20;0.20;;;;;;;14.76;76.48;100541.13;4987812;28;20046;-72
2023/09/16 02:21:52;;;;;;;0.20;0.20;;;;;;;14.67;77.70;100540.84;5021221;28;20042;-72
2023/09/16 02:24:18;;;;;;;0.20;0.20;;;;;;;14.61;80.61;100540.06;5006218;28;20073;-68
2023/09/16 02:26:44;;;;;;;0.30;0.20;;;;;;;14.45;82.77;100540.16;5004460;28;20061;-68
2023/09/16 02:29:10;;;;;;;0.20;0.20;;;;;;;14.28;84.34;100551.50;5020535;28;20053;-68
2023/09/16 02:31:37;;;;;;;0.20;0.20;;;;;;;14.14;85.64;100544.97;4987854;28;20053;-68
2023/09/16 02:34:05;;;;;;;0.20;0.20;;;;;;;14.06;86.73;100545.56;5004810;28;20050;-69
2023/09/16 02:36:31;;;;;;;0.20;0.20;;;;;;;14.03;87.32;100553.22;5020619;28;20053;-67
2023/09/16 02:38:57;;;;;;;0.20;0.20;;;;;;;13.88;87.17;100532.13;5004601;28;20053;-68
2023/09/16 02:41:24;;;;;;;0.20;0.20;;;;;;;14.02;87.47;100546.09;5005920;28;20038;-67
2023/09/16 02:43:50;;;;;;;0.10;0.10;;;;;;;14.09;86.98;100554.03;4988488;28;20460;-68
2023/09/16 02:46:17;;;;;;;0.20;0.20;;;;;;;14.12;86.85;100553.47;4973283;28;20474;-68
2023/09/16 02:48:43;;;;;;;0.10;0.10;;;;;;;14.11;86.81;100549.06;5005182;28;20050;-68
2023/09/16 02:51:12;;;;;;;0.20;0.20;;;;;;;14.12;86.44;100566.41;5006536;28;20108;-68
2023/09/16 02:53:38;;;;;;;0.15;0.15;;;;;;;14.12;86.12;100558.16;5005552;28;20432;-68
2023/09/16 02:56:08;;;;;;;0.20;0.20;;;;;;;14.12;85.30;100563.66;5008927;28;20237;-69
2023/09/16 02:58:34;;;;;;;0.10;0.10;;;;;;;14.09;85.08;100562.28;5004484;28;20046;-68
2023/09/16 03:01:08;;;;;;;0.10;0.10;;;;;;;14.10;84.40;100554.88;5005223;28;20046;-68
2023/09/16 03:03:35;;;;;;;0.10;0.10;;;;;;;14.03;83.99;100566.16;5003773;28;20092;-68
2023/09/16 03:06:01;;;;;;;0.10;0.10;;;;;;;14.00;84.00;100561.22;5006394;28;20042;-72
2023/09/16 03:08:29;;;;;;;0.17;0.17;;;;;;;13.94;84.18;100559.59;5005795;28;20081;-72
2023/09/16 03:10:59;;;;;;;0.10;0.10;;;;;;;13.88;83.75;100562.34;5004390;28;20050;-71
2023/09/16 03:13:25;;;;;;;0.20;0.20;;;;;;;13.83;83.75;100570.63;5003589;28;20073;-68
2023/09/16 03:16:14;;;;;;;0.10;0.10;;;;;;;13.79;84.16;100574.19;5004214;28;20045;-69
2023/09/16 03:18:43;;;;;;;0.10;0.10;;;;;;;13.77;84.39;100574.47;5003627;28;20053;-72
2023/09/16 03:21:09;;;;;;;0.10;0.10;;;;;;;13.77;84.18;100576.41;5005255;28;20042;-72
2023/09/16 03:23:37;;;;;;;0.10;0.10;;;;;;;13.74;84.15;100583.25;5005290;28;20076;-72
2023/09/16 03:26:03;;;;;;;0.20;0.20;;;;;;;13.73;84.27;100590.66;5004770;28;20050;-73
2023/09/16 03:28:30;;;;;;;0.20;0.20;;;;;;;13.69;84.48;100589.59;5004904;28;20050;-72
2023/09/16 03:30:56;;;;;;;0.10;0.10;;;;;;;13.71;84.58;100592.06;5002911;28;20281;-73
2023/09/16 03:33:23;;;;;;;0.20;0.20;;;;;;;13.71;84.57;100592.06;5020967;28;20050;-74
2023/09/16 03:35:50;;;;;;;0.10;0.10;;;;;;;13.70;84.41;100590.44;5003363;28;20304;-72
2023/09/16 03:38:18;;;;;;;0.10;0.10;;;;;;;13.68;84.64;100595.38;5007937;28;20041;-72
2023/09/16 03:40:46;;;;;;;0.10;0.10;;;;;;;13.65;84.47;100599.50;5005238;28;20042;-73
2023/09/16 03:43:13;;;;;;;0.20;0.20;;;;;;;13.65;84.38;100598.66;4987533;28;20042;-73
2023/09/16 03:45:39;;;;;;;0.10;0.10;;;;;;;13.65;84.21;100598.66;4986221;28;20425;-74
2023/09/16 03:48:06;;;;;;;0.10;0.10;;;;;;;13.68;84.12;100598.13;5019856;28;20127;-71
2023/09/16 03:50:33;;;;;;;0.10;0.10;;;;;;;13.62;83.90;100602.81;5002466;28;20548;-73
2023/09/16 03:52:59;;;;;;;0.20;0.20;;;;;;;13.56;83.72;100606.63;5003676;28;20416;-68
2023/09/16 03:55:26;;;;;;;0.20;0.20;;;;;;;13.51;84.10;100607.47;5004032;28;20046;-68
2023/09/16 03:57:54;;;;;;;0.10;0.10;;;;;;;13.49;84.13;100606.09;5019687;28;20046;-68
2023/09/16 04:00:21;;;;;;;0.10;0.10;;;;;;;13.47;84.16;100607.19;4988956;28;20053;-72
2023/09/16 04:02:48;;;;;;;0.10;0.10;;;;;;;13.44;83.95;100613.25;4973749;28;20050;-68
2023/09/16 04:05:14;;;;;;;0.10;0.10;;;;;;;13.50;84.23;100618.72;5003703;28;20744;-73
2023/09/16 04:07:41;;;;;;;0.10;0.10;;;;;;;13.50;83.73;100616.78;5002729;28;20513;-72
2023/09/16 04:10:08;;;;;;;0.10;0.10;;;;;;;13.51;83.67;100623.13;5005852;28;20046;-73
2023/09/16 04:12:35;;;;;;;0.20;0.20;;;;;;;13.54;83.74;100620.66;5002718;28;20049;-73
2023/09/16 04:15:05;;;;;;;0.10;0.10;;;;;;;13.55;83.79;100632.47;4975172;28;20147;-71
2023/09/16 04:17:32;;;;;;;0.10;0.10;;;;;;;13.54;83.39;100622.56;5003850;28;20042;-68
2023/09/16 04:19:58;;;;;;;0.10;0.10;;;;;;;13.56;83.53;100625.84;5008848;28;20116;-68
2023/09/16 04:22:25;;;;;;;0.20;0.20;;;;;;;13.58;83.43;100631.91;5005342;28;20475;-70
2023/09/16 04:24:53;;;;;;;0.10;0.10;;;;;;;13.61;83.33;100631.38;4991972;28;20056;-71
2023/09/16 04:27:21;;;;;;;0.10;0.10;;;;;;;13.64;83.00;100632.72;4987517;28;20046;-71
2023/09/16 04:29:50;;;;;;;0.10;0.10;;;;;;;13.69;82.88;100635.50;5008104;28;20146;-72
2023/09/16 04:32:17;;;;;;;0.10;0.10;;;;;;;13.72;82.59;100644.00;4984062;28;20049;-72
2023/09/16 04:34:44;;;;;;;0.10;0.10;;;;;;;13.73;82.37;100645.63;5005457;28;20050;-71
2023/09/16 04:37:10;;;;;;;0.10;0.10;;;;;;;13.77;82.46;100643.16;4999480;28;20213;-72
2023/09/16 04:39:36;;;;;;;0.10;0.10;;;;;;;13.82;82.15;100650.59;4993923;28;20434;-73
2023/09/16 04:42:03;;;;;;;0.10;0.10;;;;;;;13.81;81.78;100644.25;4980252;28;20399;-73
2023/09/16 04:44:29;;;;;;;0.10;0.10;;;;;;;13.85;81.50;100650.03;4978952;28;20042;-68
2023/09/16 04:46:56;;;;;;;0.10;0.10;;;;;;;13.90;81.21;100652.81;4991579;28;20054;-68
2023/09/16 04:49:27;;;;;;;0.10;0.10;;;;;;;13.92;80.58;100660.75;4994368;28;20123;-68
2023/09/16 04:51:54;;;;;;;0.10;0.10;;;;;;;13.94;80.35;100662.13;4978981;28;20054;-68
2023/09/16 04:54:20;;;;;;;0.10;0.10;;;;;;;13.98;80.34;100662.41;4999330;28;20057;-72
2023/09/16 04:56:46;;;;;;;0.15;0.15;;;;;;;13.96;79.87;100665.44;4996026;28;20046;-73
2023/09/16 04:59:12;;;;;;;0.13;0.13;;;;;;;13.90;79.86;100666.53;4973586;28;20042;-68
2023/09/16 05:01:39;;;;;;;0.10;0.10;;;;;;;13.81;79.73;100666.25;5003912;28;20046;-73
2023/09/16 05:04:05;;;;;;;0.20;0.20;;;;;;;13.78;79.71;100657.75;5003615;28;20454;-69
2023/09/16 05:06:34;;;;;;;0.10;0.10;;;;;;;13.78;79.52;100660.50;5004119;28;20300;-68
2023/09/16 05:09:01;;;;;;;0.10;0.10;;;;;;;13.81;79.22;100668.19;5004826;28;20089;-72
2023/09/16 05:11:27;;;;;;;0.10;0.10;;;;;;;13.89;78.79;100676.69;5002770;28;20064;-74
2023/09/16 05:13:58;;;;;;;0.20;0.20;;;;;;;13.97;78.18;100675.31;5005923;28;20080;-73
2023/09/16 05:16:24;;;;;;;0.20;0.20;;;;;;;14.02;77.89;100664.31;5001443;28;20551;-68
2023/09/16 05:18:54;;;;;;;0.20;0.20;;;;;;;14.06;77.60;100672.03;5002853;28;20141;-68
2023/09/16 05:21:21;;;;;;;0.20;0.20;;;;;;;14.03;77.71;100676.16;4985587;28;20050;-68
2023/09/16 05:23:51;;;;;;;0.10;0.10;;;;;;;13.96;77.79;100684.66;4980144;28;20053;-68
2023/09/16 05:26:17;;;;;;;0.20;0.20;;;;;;;13.96;78.26;100690.16;4991915;28;20042;-72
2023/09/16 05:28:45;;;;;;;;;;;;;;;13.94;78.50;100688.78;4998161;28;20466;-72
2023/09/16 05:31:12;;;;;;;0.10;0.10;;;;;;;13.93;77.76;100690.72;4980939;28;19972;-68
2023/09/16 05:33:40;;;;;;;0.10;0.10;;;;;;;13.96;77.92;100698.41;4995990;28;20129;-72
2023/09/16 05:36:07;;;;;;;0.10;0.10;;;;;;;13.97;78.19;100697.31;4997938;28;20046;-68
2023/09/16 05:38:34;;;;;;;0.10;0.10;;;;;;;13.94;78.55;100697.88;5004592;28;20583;-68
2023/09/16 05:41:02;;;;;;;0.10;0.10;;;;;;;13.82;79.23;100702.81;5002490;28;20128;-68
2023/09/16 05:43:29;;;;;;;0.20;0.20;;;;;;;13.71;79.62;100707.50;5004401;28;20136;-71
2023/09/16 05:45:55;;;;;;;0.10;0.10;;;;;;;13.65;79.71;100719.56;5004797;28;20137;-71
2023/09/16 05:48:24;;;;;;;0.15;0.15;;;;;;;13.59;79.94;100716.81;5003629;28;20105;-73
2023/09/16 05:50:56;;;;;;;0.20;0.20;;;;;;;13.50;79.91;100710.19;5003082;28;20808;-72
2023/09/16 05:53:25;;;;;;;0.10;0.10;;;;;;;13.37;79.83;100714.28;4992427;28;20528;-72
2023/09/16 05:55:53;;;;;;;0.20;0.20;;;;;;;13.37;79.65;100718.97;4990375;28;20123;-72
2023/09/16 05:58:21;;;;;;;0.10;0.10;;;;;;;13.33;79.87;100718.66;5008596;28;20169;-72
2023/09/16 06:00:55;;;;;;;0.10;0.10;;;;;;;13.31;79.30;100729.09;5010286;28;20562;-68
2023/09/16 06:03:22;;;;;;;0.22;0.15;;;;;;;13.24;79.21;100712.88;5010784;28;20054;-68
2023/09/16 06:05:48;;;;;;;0.10;0.10;;;;;;;13.28;79.03;100735.13;5008311;28;20049;-68
2023/09/16 06:08:14;;;;;;;0.10;0.10;;;;;;;13.36;78.76;100731.84;5028270;28;20149;-69
2023/09/16 06:10:41;;;;;;;0.10;0.10;;;;;;;13.38;78.27;100720.59;5002608;28;20053;-67
2023/09/16 06:13:07;;;;;;;0.10;0.10;;;;;;;13.42;77.90;100739.00;5006276;28;20139;-70
2023/09/16 06:15:35;;;;;;;0.10;0.10;;;;;;;13.50;77.63;100750.59;5004592;28;20045;-68
2023/09/16 06:18:01;;;;;;;0.10;0.10;;;;;;;13.52;77.30;100751.16;5004263;28;20066;-68
2023/09/16 06:20:28;;;;;;;0.10;0.10;;;;;;;13.58;77.29;100747.28;4976023;28;20112;-72
2023/09/16 06:22:56;;;;;;;0.20;0.20;;;;;;;13.63;76.86;100754.72;5006045;28;20056;-72
2023/09/16 06:25:23;;;;;;;0.10;0.10;;;;;;;13.65;76.40;100753.38;5003561;28;20137;-68
2023/09/16 06:27:49;;;;;;;0.20;0.20;;;;;;;13.70;76.04;100766.31;5007771;28;20038;-67
2023/09/16 06:30:16;;;;;;;0.10;0.10;;;;;;;13.61;76.21;100766.00;5008869;28;20060;-68
2023/09/16 06:32:44;;;;;;;0.10;0.10;;;;;;;13.52;76.08;100762.97;4991718;28;20046;-69
2023/09/16 06:35:10;;;;;;;0.10;0.10;;;;;;;13.45;76.10;100768.72;5008256;28;20046;-72
2023/09/16 06:37:37;;;;;;;0.20;0.20;;;;;;;13.47;75.72;100771.19;4991494;28;20503;-68
2023/09/16 06:40:05;;;;;;;0.10;0.10;;;;;;;13.47;75.36;100772.03;4992778;28;20050;-72
2023/09/16 06:42:31;;;;;;;0.20;0.20;;;;;;;13.51;75.28;100779.72;5003814;28;20073;-71
2023/09/16 06:45:01;;;;;;;0.20;0.20;;;;;;;13.51;75.33;100783.31;5021229;28;20046;-67
2023/09/16 06:47:28;;;;;;;;;;;;;;;13.55;74.99;100787.16;5004290;28;20046;-73
2023/09/16 06:49:56;;;;;;;0.15;0.15;;;;;;;13.64;75.26;100781.09;4988148;28;19936;-72
2023/09/16 06:52:27;;;;;;;0.10;0.10;;;;;;;13.77;74.84;100796.28;4998958;28;20058;-68
2023/09/16 06:54:54;;;;;;;0.20;0.20;;;;;;;13.81;74.27;100787.19;5001754;28;20145;-67
2023/09/16 06:57:20;;;;;;;0.20;0.20;;;;;;;13.84;73.57;100792.16;5003016;28;20414;-68
2023/09/16 06:59:47;;;;;;;0.20;0.20;;;;;;;13.79;73.13;100785.81;5005186;28;20137;-68
2023/09/16 07:02:14;;;;;;;0.20;0.20;;;;;;;13.87;72.54;100791.59;4986127;28;20517;-73
2023/09/16 07:04:45;;;;;;;0.10;0.10;;;;;;;13.93;72.57;100802.59;4983438;28;20120;-68
2023/09/16 07:07:13;;;;;;;0.20;0.20;;;;;;;13.99;71.86;100807.84;4984160;28;20046;-68
2023/09/16 07:09:40;;;;;;;0.20;0.20;;;;;;;13.95;71.83;100786.66;4985303;28;20369;-68
2023/09/16 07:12:07;;;;;;;0.20;0.20;;;;;;;13.98;71.60;100802.63;4997439;28;20050;-68
2023/09/16 07:14:37;;;;;;;0.30;0.20;;;;;;;13.94;71.33;100798.75;5005508;28;20070;-68
2023/09/16 07:17:04;;;;;;;0.20;0.20;;;;;;;13.85;71.26;100791.06;5001673;28;20481;-72
2023/09/16 07:19:31;;;;;;;;;;;;;;;13.88;71.27;100800.66;4979115;28;20112;-72
2023/09/16 07:21:58;;;;;;;0.20;0.20;;;;;;;13.83;71.17;100800.66;4979369;28;19925;-72
2023/09/16 07:24:26;;;;;;;0.20;0.20;;;;;;;13.90;71.16;100806.75;5011544;28;20101;-72
2023/09/16 07:26:52;;;;;;;0.20;0.20;;;;;;;13.98;70.81;100805.38;5010731;28;20072;-72
2023/09/16 07:29:19;;;;;;;0.10;0.10;;;;;;;13.97;70.49;100809.19;5004336;28;20096;-72
2023/09/16 07:31:45;;;;;;;0.10;0.10;;;;;;;13.86;70.01;100800.13;5002793;28;20050;-72
2023/09/16 07:34:11;;;;;;;0.20;0.20;;;;;;;13.88;70.48;100814.41;5003548;28;20536;-72
2023/09/16 07:36:38;;;;;;;0.20;0.20;;;;;;;13.89;70.51;100814.16;4997749;28;20045;-72
2023/09/16 07:39:04;;;;;;;0.20;0.20;;;;;;;14.02;70.80;100820.22;5021531;28;20061;-71
2023/09/16 07:41:32;;;;;;;0.20;0.20;;;;;;;14.29;70.12;100808.94;5008188;28;20049;-73
2023/09/16 07:43:58;;;;;;;0.30;0.30;;;;;;;14.63;68.09;100807.56;5004594;28;20054;-73
2023/09/16 07:46:25;;;;;;;0.20;0.20;;;;;;;14.89;67.21;100818.53;5004070;28;20050;-73
2023/09/16 07:48:51;;;;;;;0.30;0.30;;;;;;;14.89;66.97;100822.13;5002851;28;20120;-73
2023/09/16 07:51:18;;;;;;;0.20;0.20;;;;;;;14.81;66.59;100816.38;5020666;28;20104;-72
2023/09/16 07:53:44;;;;;;;0.20;0.20;;;;;;;14.77;66.92;100818.84;5006987;28;20115;-69
2023/09/16 07:56:13;;;;;;;0.20;0.20;;;;;;;14.63;66.96;100809.47;5013662;28;20086;-68
2023/09/16 07:58:41;;;;;;;0.20;0.20;;;;;;;14.68;66.98;100804.78;5005830;28;20132;-73
2023/09/16 08:01:08;;;;;;;0.20;0.20;;;;;;;14.87;66.04;100834.50;4999659;28;20096;-73
2023/09/16 08:03:37;;;;;;;0.20;0.20;;;;;;;14.85;65.66;100832.06;4987545;28;20060;-71
2023/09/16 08:06:03;;;;;;;0.20;0.20;;;;;;;14.73;65.02;100812.25;5004802;28;20048;-72
2023/09/16 08:08:30;;;;;;;0.30;0.30;;;;;;;14.99;64.17;100835.03;5006567;28;20069;-72
2023/09/16 08:10:56;;;;;;;0.20;0.20;;;;;;;14.98;63.88;100835.31;4975001;28;20046;-71
2023/09/16 08:13:22;;;;;;;0.20;0.20;;;;;;;14.97;64.45;100833.66;5014098;28;20053;-72
2023/09/16 08:15:54;;;;;;;0.20;0.20;;;;;;;14.91;64.83;100834.78;5013258;28;20045;-72
2023/09/16 08:18:20;;;;;;;0.20;0.20;;;;;;;14.78;65.01;100842.50;4987257;28;20147;-68
2023/09/16 08:20:47;;;;;;;0.20;0.20;;;;;;;14.77;65.20;100840.88;5003025;28;20050;-73
2023/09/16 08:23:13;;;;;;;0.20;0.20;;;;;;;14.77;64.84;100846.38;4985437;28;20050;-69
2023/09/16 08:25:40;;;;;;;0.20;0.20;;;;;;;14.75;65.46;100845.81;5004450;28;20100;-68
2023/09/16 08:28:06;;;;;;;0.20;0.20;;;;;;;14.75;65.06;100845.81;5004715;28;20195;-73
2023/09/16 08:30:32;;;;;;;0.20;0.20;;;;;;;14.74;64.70;100846.94;4971488;28;20049;-72
2023/09/16 08:33:00;;;;;;;0.20;0.20;;;;;;;14.80;65.11;100851.31;5021563;28;20104;-68
2023/09/16 08:35:26;;;;;;;0.20;0.20;;;;;;;14.87;64.52;100849.13;4986146;28;20606;-68
2023/09/16 08:37:54;;;;;;;0.20;0.20;;;;;;;14.87;64.57;100848.28;5005656;28;20060;-68
2023/09/16 08:40:21;;;;;;;0.20;0.20;;;;;;;14.88;64.52;100849.94;5005379;28;20046;-68
2023/09/16 08:42:54;;;;;;;0.20;0.20;;;;;;;14.84;63.94;100849.69;5001466;28;20509;-67
2023/09/16 08:45:23;;;;;;;0.20;0.20;;;;;;;14.72;64.38;100851.88;5001791;28;20058;-67
2023/09/16 08:48:01;;;;;;;0.20;0.20;;;;;;;14.85;63.44;100867.00;5003129;28;20054;-68
2023/09/16 08:50:31;;;;;;;0.20;0.20;;;;;;;15.02;62.88;100861.19;5003908;28;20543;-68
2023/09/16 08:53:02;;;;;;;0.22;0.22;;;;;;;15.12;61.98;100868.59;5002671;28;20046;-72
2023/09/16 08:55:32;;;;;;;0.25;0.25;;;;;;;15.23;61.82;100869.41;5003212;28;20065;-72
2023/09/16 08:58:05;;;;;;;0.28;0.28;;;;;;;15.31;61.63;100863.31;5004660;28;20065;-69
2023/09/16 09:00:31;;;;;;;0.30;0.30;;;;;;;15.49;61.04;100870.13;4980750;28;20140;-73
2023/09/16 09:02:58;;;;;;;0.20;0.20;;;;;;;15.51;60.91;100867.09;5000776;28;20069;-73
2023/09/16 09:05:26;;;;;;;0.20;0.20;;;;;;;15.44;60.91;100868.22;5000502;28;20056;-70
2023/09/16 09:07:54;;;;;;;0.43;0.20;;;;;;;15.34;61.31;100873.78;4999115;28;20052;-71
2023/09/16 09:10:20;;;;;;;0.20;0.20;;;;;;;15.31;61.82;100874.34;4959762;28;20045;-70
2023/09/16 09:12:47;;;;;;;0.20;0.20;;;;;;;15.29;61.57;100879.28;4979249;28;20074;-70
2023/09/16 09:15:15;;;;;;;0.20;0.20;;;;;;;15.27;61.70;100890.59;4968056;28;20838;-70
2023/09/16 09:17:45;;;;;;;0.30;0.30;;;;;;;15.39;61.57;100884.78;4966689;28;20142;-69
2023/09/16 09:20:18;;;;;;;0.30;0.30;;;;;;;15.52;61.47;100877.81;4947713;28;20555;-70
2023/09/16 09:22:47;;;;;;;0.20;0.20;;;;;;;15.73;60.78;100881.31;4963074;28;20046;-71
2023/09/16 09:25:18;;;;;;;0.20;0.20;;;;;;;15.92;59.54;100886.25;4965675;28;20051;-70
2023/09/16 09:27:46;;;;;;;0.20;0.20;;;;;;;16.01;57.73;100890.03;4964560;28;20051;-68
2023/09/16 09:30:13;;;;;;;0.20;0.20;;;;;;;15.88;58.17;100882.34;4961833;28;20070;-69
2023/09/16 09:32:43;;;;;;;0.20;0.20;;;;;;;15.72;58.22;100868.66;4962813;28;20047;-69
2023/09/16 09:35:11;;;;;;;0.30;0.30;;;;;;;15.80;58.45;100880.19;4964475;28;20142;-69
2023/09/16 09:37:37;;;;;;;0.20;0.20;;;;;;;15.79;58.48;100892.34;4965989;28;20079;-70
2023/09/16 09:40:09;;;;;;;0.20;0.20;;;;;;;15.72;58.45;100898.16;4962445;28;20102;-70
2023/09/16 09:42:40;;;;;;;0.20;0.20;;;;;;;15.47;58.92;100883.38;4959656;28;20422;-70
2023/09/16 09:45:08;;;;;;;0.30;0.30;;;;;;;15.44;58.83;100897.72;4961050;28;20141;-71
2023/09/16 09:47:34;;;;;;;0.22;0.22;;;;;;;15.43;58.95;100898.81;4964763;28;20054;-70
2023/09/16 09:50:01;;;;;;;0.30;0.30;;;;;;;15.44;58.09;100903.22;4964400;28;20054;-70
2023/09/16 09:52:27;;;;;;;0.30;0.30;;;;;;;15.44;58.05;100914.25;4963547;28;20423;-70
2023/09/16 09:54:55;;;;;;;0.50;0.50;;;;;;;15.62;57.94;100907.31;4963924;28;20402;-70
2023/09/16 09:57:22;;;;;;;0.35;0.35;;;;;;;17.71;52.16;100900.63;4963370;28;20079;-71
2023/09/16 09:59:50;;;;;;;0.30;0.30;;;;;;;18.59;49.30;100893.00;4978640;28;20047;-71
2023/09/16 10:02:16;;;;;;;0.30;0.30;;;;;;;18.41;49.20;100905.75;4963394;28;20051;-70
2023/09/16 10:04:42;;;;;;;0.40;0.40;;;;;;;18.82;48.60;100902.31;4964072;28;20156;-70
2023/09/16 10:07:08;;;;;;;0.38;0.38;;;;;;;19.80;46.24;100902.38;4977064;28;20050;-70
2023/09/16 10:09:35;;;;;;;0.30;0.30;;;;;;;19.61;45.85;100902.50;4988626;28;20440;-70
2023/09/16 10:12:01;;;;;;;0.40;0.40;;;;;;;19.19;46.59;100904.44;5001380;28;20137;-70
2023/09/16 10:14:28;;;;;;;0.30;0.30;;;;;;;18.88;47.39;100903.03;4984801;28;20580;-69
2023/09/16 10:16:56;;;;;;;0.28;0.28;;;;;;;18.27;48.38;100903.75;5002619;28;20133;-69
2023/09/16 10:19:22;;;;;;;0.20;0.20;;;;;;;17.69;50.45;100899.28;4997128;28;20528;-70
2023/09/16 10:21:49;;;;;;;0.30;0.30;;;;;;;17.21;51.17;100905.66;5001178;28;20042;-69
2023/09/16 10:24:16;;;;;;;0.20;0.20;;;;;;;16.79;52.65;100914.31;5003315;28;20042;-70
2023/09/16 10:26:43;;;;;;;0.30;0.30;;;;;;;16.53;53.87;100916.44;5000340;28;20046;-70
2023/09/16 10:29:12;;;;;;;0.20;0.20;;;;;;;16.28;54.47;100905.31;5001697;28;20046;-70
2023/09/16 10:31:41;;;;;;;0.30;0.30;;;;;;;16.11;55.33;100915.91;5003164;28;20057;-70
2023/09/16 10:34:09;;;;;;;0.30;0.30;;;;;;;16.04;55.90;100916.22;4987539;28;20049;-70
2023/09/16 10:36:36;;;;;;;0.20;0.20;;;;;;;16.01;56.17;100917.59;5002382;28;20073;-70
2023/09/16 10:39:03;;;;;;;0.20;0.20;;;;;;;15.90;56.67;100923.47;5003513;28;20050;-70
2023/09/16 10:41:30;;;;;;;;;;;;;;;15.83;56.49;100921.78;5011014;28;20071;-68
2023/09/16 10:43:57;;;;;;;;;;;;;;;15.76;56.82;100915.78;5004007;28;19925;-68
2023/09/16 10:46:24;;;;;;;0.30;0.30;;;;;;;15.69;56.63;100927.09;5004985;28;19937;-68
2023/09/16 10:48:51;;;;;;;0.27;0.27;;;;;;;15.72;56.76;100926.53;5005992;28;20052;-69
2023/09/16 10:51:22;;;;;;;0.30;0.30;;;;;;;15.73;56.66;100927.38;4656226;28;10000328;-69
2023/09/16 10:53:55;;;;;;;0.30;0.30;;;;;;;15.72;56.31;100932.06;5001183;28;20173;-68
2023/09/16 10:56:25;;;;;;;0.20;0.20;;;;;;;15.68;56.21;100930.13;4998948;28;20540;-69
2023/09/16 10:58:57;;;;;;;0.30;0.30;;;;;;;15.68;56.25;100930.13;5002892;28;20053;-69
2023/09/16 11:01:31;;;;;;;0.30;0.30;;;;;;;15.70;55.73;100911.41;5003741;28;20192;-69
2023/09/16 11:04:09;;;;;;;0.30;0.30;;;;;;;15.71;55.44;100932.34;5001768;28;20050;-69
2023/09/16 11:06:37;;;;;;;0.30;0.30;;;;;;;15.69;55.04;100913.31;4968108;28;20045;-70
2023/09/16 11:09:05;;;;;;;0.30;0.30;;;;;;;16.02;55.27;100937.75;5003025;28;20064;-70
2023/09/16 11:11:32;;;;;;;0.22;0.22;;;;;;;16.74;53.55;100941.97;5020262;28;20049;-69
2023/09/16 11:13:59;;;;;;;0.30;0.30;;;;;;;16.92;52.70;100942.38;5020571;28;20299;-68
2023/09/16 11:16:26;;;;;;;0.30;0.30;;;;;;;16.91;52.27;100944.28;5012520;28;20046;-70
2023/09/16 11:18:54;;;;;;;0.30;0.30;;;;;;;16.73;52.15;100945.84;5006511;28;20053;-71
2023/09/16 11:21:21;;;;;;;0.30;0.30;;;;;;;16.60;53.25;100947.31;5003551;28;20049;-70
2023/09/16 11:23:50;;;;;;;0.30;0.30;;;;;;;16.52;52.82;100954.25;5006836;28;20132;-70
2023/09/16 11:26:18;;;;;;;0.30;0.30;;;;;;;16.48;52.59;100955.94;5006085;28;20064;-70
2023/09/16 11:28:44;;;;;;;0.28;0.28;;;;;;;16.59;52.67;100954.78;5005051;28;20517;-70